KGNV/GNV METAR and TAF weather

Enter ICAO airport designator
Station Type Date Time Source
KGNV METAR 2021/05/11 22:13 UTC NOAA

KGNV 112213Z 02003KT 10SM VCTS FEW100 SCT110 24/18 A3007 RMK AO2 LTG DSNT SW AND W T02390183


Station Type Date Time Source
KGNV Decoded METAR 2021/05/11 22:13 UTC NOAA

GAINESVILLE REGIONAL AIRPORT , FL, United States (KGNV) 29-42N 082-17W 45M
May 11, 2021 - 06:13 PM EDT / 2021.05.11 2213 UTC
Wind: from the NNE (020 degrees) at 3 MPH (3 KT):0
Visibility: 10 mile(s):0
Sky conditions: partly cloudy
Weather: thunder in the vicinity; Lightning observed
Temperature: 75.0 F (23.9 C)
Dew Point: 64.9 F (18.3 C)
Relative Humidity: 70%
Pressure (altimeter): 30.07 in. Hg (1018 hPa)
ob: KGNV 112213Z 02003KT 10SM VCTS FEW100 SCT110 24/18 A3007 RMK AO2 LTG DSNT SW AND W T02390183
cycle: 22

Station Type Date Time Source
KGNV TAF 2021/05/11 22:42 UTC NOAA

TAF
AMD KGNV 112140Z 1122/1218 34010G25KT 3SM TSRA BKN025CB BKN050 BKN080
FM112300 23005KT P6SM VCSH SCT040 BKN100
FM120300 VRB03KT P6SM FEW050 SCT120 SCT200
FM120900 VRB02KT 6SM BR FEW010 SCT100 BKN250

Example: see airport list